sensor_id;sensor_type;location;lat;lon;timestamp;P1;durP1;ratioP1;P2;durP2;ratioP2
84266;SDS011;74414;51.098;13.716;2024-02-16T00:01:00;25.25;;;13.25;;
84266;SDS011;74414;51.098;13.716;2024-02-16T00:03:26;24.05;;;12.52;;
84266;SDS011;74414;51.098;13.716;2024-02-16T00:05:52;24.52;;;12.93;;
84266;SDS011;74414;51.098;13.716;2024-02-16T00:08:18;23.67;;;13.00;;
84266;SDS011;74414;51.098;13.716;2024-02-16T00:10:44;27.20;;;12.88;;
84266;SDS011;74414;51.098;13.716;2024-02-16T00:13:09;26.50;;;12.30;;
84266;SDS011;74414;51.098;13.716;2024-02-16T00:15:34;24.35;;;13.00;;
84266;SDS011;74414;51.098;13.716;2024-02-16T00:18:00;25.97;;;12.67;;
84266;SDS011;74414;51.098;13.716;2024-02-16T00:20:25;25.73;;;13.33;;
84266;SDS011;74414;51.098;13.716;2024-02-16T00:22:50;28.27;;;13.87;;
84266;SDS011;74414;51.098;13.716;2024-02-16T00:25:16;27.08;;;13.45;;
84266;SDS011;74414;51.098;13.716;2024-02-16T00:27:43;27.38;;;14.63;;
84266;SDS011;74414;51.098;13.716;2024-02-16T00:30:08;24.63;;;13.05;;
84266;SDS011;74414;51.098;13.716;2024-02-16T00:32:35;27.70;;;13.77;;
84266;SDS011;74414;51.098;13.716;2024-02-16T00:35:02;25.75;;;12.60;;
84266;SDS011;74414;51.098;13.716;2024-02-16T00:37:27;27.42;;;13.52;;
84266;SDS011;74414;51.098;13.716;2024-02-16T00:39:53;24.73;;;13.57;;
84266;SDS011;74414;51.098;13.716;2024-02-16T00:42:19;26.38;;;14.45;;
84266;SDS011;74414;51.098;13.716;2024-02-16T00:44:45;30.05;;;13.98;;
84266;SDS011;74414;51.098;13.716;2024-02-16T00:47:10;30.47;;;14.07;;
84266;SDS011;74414;51.098;13.716;2024-02-16T00:49:35;27.30;;;13.43;;
84266;SDS011;74414;51.098;13.716;2024-02-16T00:52:01;28.13;;;13.15;;
84266;SDS011;74414;51.098;13.716;2024-02-16T00:54:27;26.95;;;12.85;;
84266;SDS011;74414;51.098;13.716;2024-02-16T00:56:53;29.30;;;14.67;;
84266;SDS011;74414;51.098;13.716;2024-02-16T00:59:19;31.30;;;14.50;;
84266;SDS011;74414;51.098;13.716;2024-02-16T01:01:46;33.60;;;15.13;;
84266;SDS011;74414;51.098;13.716;2024-02-16T01:04:12;34.28;;;13.98;;
84266;SDS011;74414;51.098;13.716;2024-02-16T01:06:37;31.13;;;14.43;;
84266;SDS011;74414;51.098;13.716;2024-02-16T01:09:02;31.70;;;13.93;;
84266;SDS011;74414;51.098;13.716;2024-02-16T01:11:28;30.25;;;13.80;;
84266;SDS011;74414;51.098;13.716;2024-02-16T01:13:54;32.83;;;14.60;;
84266;SDS011;74414;51.098;13.716;2024-02-16T01:16:19;28.83;;;13.57;;
84266;SDS011;74414;51.098;13.716;2024-02-16T01:18:45;27.57;;;13.50;;
84266;SDS011;74414;51.098;13.716;2024-02-16T01:21:10;27.10;;;13.67;;
84266;SDS011;74414;51.098;13.716;2024-02-16T01:23:36;28.42;;;12.70;;
84266;SDS011;74414;51.098;13.716;2024-02-16T01:26:01;29.33;;;13.30;;
84266;SDS011;74414;51.098;13.716;2024-02-16T01:28:27;27.15;;;12.82;;
84266;SDS011;74414;51.098;13.716;2024-02-16T01:30:52;27.15;;;13.02;;
84266;SDS011;74414;51.098;13.716;2024-02-16T01:33:17;26.77;;;12.47;;
84266;SDS011;74414;51.098;13.716;2024-02-16T01:35:44;33.45;;;13.73;;
84266;SDS011;74414;51.098;13.716;2024-02-16T01:38:11;30.05;;;13.50;;
84266;SDS011;74414;51.098;13.716;2024-02-16T01:40:36;34.47;;;14.70;;
84266;SDS011;74414;51.098;13.716;2024-02-16T01:43:01;35.78;;;14.93;;
84266;SDS011;74414;51.098;13.716;2024-02-16T01:45:27;28.73;;;13.48;;
84266;SDS011;74414;51.098;13.716;2024-02-16T01:47:53;35.65;;;14.02;;
84266;SDS011;74414;51.098;13.716;2024-02-16T01:50:20;33.63;;;15.18;;
84266;SDS011;74414;51.098;13.716;2024-02-16T01:52:48;30.27;;;14.32;;
84266;SDS011;74414;51.098;13.716;2024-02-16T01:55:14;31.65;;;13.77;;
84266;SDS011;74414;51.098;13.716;2024-02-16T01:57:42;33.70;;;14.57;;
84266;SDS011;74414;51.098;13.716;2024-02-16T02:00:08;31.70;;;14.23;;
84266;SDS011;74414;51.098;13.716;2024-02-16T02:02:34;33.33;;;15.57;;
84266;SDS011;74414;51.098;13.716;2024-02-16T02:05:01;31.88;;;13.60;;
84266;SDS011;74414;51.098;13.716;2024-02-16T02:07:27;31.95;;;13.23;;
84266;SDS011;74414;51.098;13.716;2024-02-16T02:09:52;29.13;;;12.95;;
84266;SDS011;74414;51.098;13.716;2024-02-16T02:12:18;29.95;;;13.65;;
84266;SDS011;74414;51.098;13.716;2024-02-16T02:14:44;28.52;;;12.27;;
84266;SDS011;74414;51.098;13.716;2024-02-16T02:17:11;27.85;;;12.40;;
84266;SDS011;74414;51.098;13.716;2024-02-16T02:19:37;24.45;;;12.13;;
84266;SDS011;74414;51.098;13.716;2024-02-16T02:22:03;21.50;;;10.45;;
84266;SDS011;74414;51.098;13.716;2024-02-16T02:24:29;21.77;;;10.73;;
84266;SDS011;74414;51.098;13.716;2024-02-16T02:26:54;22.52;;;11.18;;
84266;SDS011;74414;51.098;13.716;2024-02-16T02:29:20;20.17;;;9.15;;
84266;SDS011;74414;51.098;13.716;2024-02-16T02:31:46;20.45;;;10.13;;
84266;SDS011;74414;51.098;13.716;2024-02-16T02:34:11;20.85;;;9.80;;
84266;SDS011;74414;51.098;13.716;2024-02-16T02:36:37;20.60;;;9.60;;
84266;SDS011;74414;51.098;13.716;2024-02-16T02:39:02;20.38;;;9.82;;
84266;SDS011;74414;51.098;13.716;2024-02-16T02:41:28;17.65;;;8.77;;
84266;SDS011;74414;51.098;13.716;2024-02-16T02:43:54;20.33;;;9.05;;
84266;SDS011;74414;51.098;13.716;2024-02-16T02:46:22;20.15;;;9.25;;
84266;SDS011;74414;51.098;13.716;2024-02-16T02:48:50;20.80;;;9.48;;
84266;SDS011;74414;51.098;13.716;2024-02-16T02:51:15;20.50;;;9.20;;
84266;SDS011;74414;51.098;13.716;2024-02-16T02:53:41;19.10;;;9.57;;
84266;SDS011;74414;51.098;13.716;2024-02-16T02:56:06;20.08;;;10.05;;
84266;SDS011;74414;51.098;13.716;2024-02-16T02:58:32;23.63;;;10.38;;
84266;SDS011;74414;51.098;13.716;2024-02-16T03:00:58;22.92;;;10.82;;
84266;SDS011;74414;51.098;13.716;2024-02-16T03:03:24;27.83;;;10.57;;
84266;SDS011;74414;51.098;13.716;2024-02-16T03:05:49;23.08;;;11.30;;
84266;SDS011;74414;51.098;13.716;2024-02-16T03:08:15;23.55;;;11.23;;
84266;SDS011;74414;51.098;13.716;2024-02-16T03:10:41;30.58;;;13.48;;
84266;SDS011;74414;51.098;13.716;2024-02-16T03:13:06;29.50;;;12.57;;
84266;SDS011;74414;51.098;13.716;2024-02-16T03:15:35;31.40;;;13.50;;
84266;SDS011;74414;51.098;13.716;2024-02-16T03:18:01;32.65;;;13.77;;
84266;SDS011;74414;51.098;13.716;2024-02-16T03:20:27;28.45;;;12.95;;
84266;SDS011;74414;51.098;13.716;2024-02-16T03:22:53;27.02;;;12.73;;
84266;SDS011;74414;51.098;13.716;2024-02-16T03:25:18;24.85;;;11.95;;
84266;SDS011;74414;51.098;13.716;2024-02-16T03:27:45;24.58;;;12.18;;
84266;SDS011;74414;51.098;13.716;2024-02-16T03:30:10;20.50;;;11.40;;
84266;SDS011;74414;51.098;13.716;2024-02-16T03:32:36;22.15;;;10.23;;
84266;SDS011;74414;51.098;13.716;2024-02-16T03:35:02;21.02;;;10.75;;
84266;SDS011;74414;51.098;13.716;2024-02-16T03:37:27;19.77;;;9.02;;
84266;SDS011;74414;51.098;13.716;2024-02-16T03:39:53;19.63;;;11.18;;
84266;SDS011;74414;51.098;13.716;2024-02-16T03:42:21;17.65;;;10.32;;
84266;SDS011;74414;51.098;13.716;2024-02-16T03:44:46;18.90;;;10.77;;
84266;SDS011;74414;51.098;13.716;2024-02-16T03:47:11;18.95;;;9.93;;
84266;SDS011;74414;51.098;13.716;2024-02-16T03:49:37;18.23;;;9.20;;
84266;SDS011;74414;51.098;13.716;2024-02-16T03:52:04;22.92;;;9.45;;
84266;SDS011;74414;51.098;13.716;2024-02-16T03:54:29;17.13;;;9.75;;
84266;SDS011;74414;51.098;13.716;2024-02-16T03:56:56;16.13;;;8.85;;
84266;SDS011;74414;51.098;13.716;2024-02-16T03:59:21;18.15;;;9.43;;
84266;SDS011;74414;51.098;13.716;2024-02-16T04:01:47;18.17;;;10.15;;
84266;SDS011;74414;51.098;13.716;2024-02-16T04:04:12;16.58;;;9.70;;
84266;SDS011;74414;51.098;13.716;2024-02-16T04:06:38;17.63;;;8.60;;
84266;SDS011;74414;51.098;13.716;2024-02-16T04:09:03;19.35;;;10.18;;
84266;SDS011;74414;51.098;13.716;2024-02-16T04:11:31;18.98;;;10.70;;
84266;SDS011;74414;51.098;13.716;2024-02-16T04:13:57;18.00;;;10.45;;
84266;SDS011;74414;51.098;13.716;2024-02-16T04:16:22;19.63;;;9.85;;
84266;SDS011;74414;51.098;13.716;2024-02-16T04:18:49;20.38;;;10.75;;
84266;SDS011;74414;51.098;13.716;2024-02-16T04:21:15;17.98;;;9.50;;
84266;SDS011;74414;51.098;13.716;2024-02-16T04:23:40;19.63;;;10.53;;
84266;SDS011;74414;51.098;13.716;2024-02-16T04:26:05;19.13;;;10.70;;
84266;SDS011;74414;51.098;13.716;2024-02-16T04:28:31;18.65;;;10.65;;
84266;SDS011;74414;51.098;13.716;2024-02-16T04:30:57;22.23;;;11.30;;
84266;SDS011;74414;51.098;13.716;2024-02-16T04:33:22;20.20;;;11.77;;
84266;SDS011;74414;51.098;13.716;2024-02-16T04:35:48;17.15;;;10.05;;
84266;SDS011;74414;51.098;13.716;2024-02-16T04:38:15;20.80;;;10.75;;
84266;SDS011;74414;51.098;13.716;2024-02-16T04:40:42;21.10;;;11.35;;
84266;SDS011;74414;51.098;13.716;2024-02-16T04:43:07;19.57;;;11.43;;
84266;SDS011;74414;51.098;13.716;2024-02-16T04:45:32;21.23;;;12.95;;
84266;SDS011;74414;51.098;13.716;2024-02-16T04:48:01;20.03;;;11.20;;
84266;SDS011;74414;51.098;13.716;2024-02-16T04:50:28;22.52;;;11.95;;
84266;SDS011;74414;51.098;13.716;2024-02-16T04:52:53;18.20;;;11.03;;
84266;SDS011;74414;51.098;13.716;2024-02-16T04:55:18;18.23;;;11.03;;
84266;SDS011;74414;51.098;13.716;2024-02-16T04:57:44;23.83;;;12.77;;
84266;SDS011;74414;51.098;13.716;2024-02-16T05:00:09;19.17;;;11.20;;
84266;SDS011;74414;51.098;13.716;2024-02-16T05:02:35;21.20;;;11.43;;
84266;SDS011;74414;51.098;13.716;2024-02-16T05:05:01;19.48;;;11.13;;
84266;SDS011;74414;51.098;13.716;2024-02-16T05:07:26;16.97;;;10.20;;
84266;SDS011;74414;51.098;13.716;2024-02-16T05:09:52;20.00;;;11.48;;
84266;SDS011;74414;51.098;13.716;2024-02-16T05:14:49;20.93;;;11.80;;
84266;SDS011;74414;51.098;13.716;2024-02-16T05:17:15;19.80;;;11.13;;
84266;SDS011;74414;51.098;13.716;2024-02-16T05:19:40;19.90;;;11.53;;
84266;SDS011;74414;51.098;13.716;2024-02-16T05:22:05;20.83;;;10.47;;
84266;SDS011;74414;51.098;13.716;2024-02-16T05:24:30;22.20;;;10.17;;
84266;SDS011;74414;51.098;13.716;2024-02-16T05:26:56;19.90;;;11.77;;
84266;SDS011;74414;51.098;13.716;2024-02-16T05:29:21;20.00;;;11.40;;
84266;SDS011;74414;51.098;13.716;2024-02-16T05:31:46;21.23;;;11.73;;
84266;SDS011;74414;51.098;13.716;2024-02-16T05:34:12;19.95;;;10.68;;
84266;SDS011;74414;51.098;13.716;2024-02-16T05:36:38;22.45;;;11.43;;
84266;SDS011;74414;51.098;13.716;2024-02-16T05:39:04;20.98;;;11.95;;
84266;SDS011;74414;51.098;13.716;2024-02-16T05:41:45;17.80;;;11.23;;
84266;SDS011;74414;51.098;13.716;2024-02-16T05:44:11;20.95;;;11.75;;
84266;SDS011;74414;51.098;13.716;2024-02-16T05:46:36;21.10;;;11.07;;
84266;SDS011;74414;51.098;13.716;2024-02-16T05:49:03;18.13;;;11.20;;
84266;SDS011;74414;51.098;13.716;2024-02-16T05:51:36;20.08;;;11.48;;
84266;SDS011;74414;51.098;13.716;2024-02-16T05:54:02;24.88;;;12.57;;
84266;SDS011;74414;51.098;13.716;2024-02-16T05:56:28;17.83;;;9.98;;
84266;SDS011;74414;51.098;13.716;2024-02-16T05:58:53;18.80;;;10.70;;
84266;SDS011;74414;51.098;13.716;2024-02-16T06:01:19;23.33;;;12.55;;
84266;SDS011;74414;51.098;13.716;2024-02-16T06:03:44;21.60;;;11.33;;
84266;SDS011;74414;51.098;13.716;2024-02-16T06:06:09;20.23;;;11.27;;
84266;SDS011;74414;51.098;13.716;2024-02-16T06:08:35;21.00;;;11.23;;
84266;SDS011;74414;51.098;13.716;2024-02-16T06:11:00;17.40;;;10.50;;
84266;SDS011;74414;51.098;13.716;2024-02-16T06:13:27;21.70;;;11.50;;
84266;SDS011;74414;51.098;13.716;2024-02-16T06:15:53;24.35;;;11.70;;
84266;SDS011;74414;51.098;13.716;2024-02-16T06:18:18;20.83;;;11.52;;
84266;SDS011;74414;51.098;13.716;2024-02-16T06:20:44;20.17;;;11.77;;
84266;SDS011;74414;51.098;13.716;2024-02-16T06:23:10;23.38;;;11.65;;
84266;SDS011;74414;51.098;13.716;2024-02-16T06:25:35;21.80;;;12.17;;
84266;SDS011;74414;51.098;13.716;2024-02-16T06:28:01;22.73;;;12.45;;
84266;SDS011;74414;51.098;13.716;2024-02-16T06:30:28;22.63;;;11.98;;
84266;SDS011;74414;51.098;13.716;2024-02-16T06:32:53;21.02;;;12.40;;
84266;SDS011;74414;51.098;13.716;2024-02-16T06:35:20;21.48;;;13.25;;
84266;SDS011;74414;51.098;13.716;2024-02-16T06:37:45;20.50;;;11.23;;
84266;SDS011;74414;51.098;13.716;2024-02-16T06:40:11;20.55;;;10.90;;
84266;SDS011;74414;51.098;13.716;2024-02-16T06:42:36;27.75;;;13.32;;
84266;SDS011;74414;51.098;13.716;2024-02-16T06:45:03;20.80;;;11.00;;
84266;SDS011;74414;51.098;13.716;2024-02-16T06:47:30;23.00;;;10.75;;
84266;SDS011;74414;51.098;13.716;2024-02-16T06:49:56;20.75;;;12.23;;
84266;SDS011;74414;51.098;13.716;2024-02-16T06:52:21;21.67;;;12.02;;
84266;SDS011;74414;51.098;13.716;2024-02-16T06:54:47;22.20;;;12.88;;
84266;SDS011;74414;51.098;13.716;2024-02-16T06:57:12;22.17;;;11.70;;
84266;SDS011;74414;51.098;13.716;2024-02-16T06:59:37;23.40;;;12.33;;
84266;SDS011;74414;51.098;13.716;2024-02-16T07:02:03;25.97;;;12.00;;
84266;SDS011;74414;51.098;13.716;2024-02-16T07:04:28;18.05;;;11.13;;
84266;SDS011;74414;51.098;13.716;2024-02-16T07:06:54;20.40;;;11.93;;
84266;SDS011;74414;51.098;13.716;2024-02-16T07:09:19;21.88;;;11.68;;
84266;SDS011;74414;51.098;13.716;2024-02-16T07:11:46;20.77;;;12.05;;
84266;SDS011;74414;51.098;13.716;2024-02-16T07:14:14;20.98;;;11.38;;
84266;SDS011;74414;51.098;13.716;2024-02-16T07:16:39;19.67;;;10.87;;
84266;SDS011;74414;51.098;13.716;2024-02-16T07:19:04;21.47;;;11.80;;
84266;SDS011;74414;51.098;13.716;2024-02-16T07:21:30;17.80;;;10.63;;
84266;SDS011;74414;51.098;13.716;2024-02-16T07:23:55;21.95;;;9.65;;
84266;SDS011;74414;51.098;13.716;2024-02-16T07:26:21;19.97;;;10.67;;
84266;SDS011;74414;51.098;13.716;2024-02-16T07:28:47;20.55;;;11.68;;
84266;SDS011;74414;51.098;13.716;2024-02-16T07:31:12;16.10;;;9.57;;
84266;SDS011;74414;51.098;13.716;2024-02-16T07:33:39;20.52;;;11.48;;
84266;SDS011;74414;51.098;13.716;2024-02-16T07:36:04;23.40;;;10.00;;
84266;SDS011;74414;51.098;13.716;2024-02-16T07:38:30;18.83;;;11.18;;
84266;SDS011;74414;51.098;13.716;2024-02-16T07:40:55;18.30;;;11.13;;
84266;SDS011;74414;51.098;13.716;2024-02-16T07:43:21;20.83;;;11.25;;
84266;SDS011;74414;51.098;13.716;2024-02-16T07:45:49;21.08;;;12.38;;
84266;SDS011;74414;51.098;13.716;2024-02-16T07:48:14;19.60;;;11.43;;
84266;SDS011;74414;51.098;13.716;2024-02-16T07:50:40;19.00;;;10.57;;
84266;SDS011;74414;51.098;13.716;2024-02-16T07:53:06;19.85;;;12.00;;
84266;SDS011;74414;51.098;13.716;2024-02-16T07:55:32;20.05;;;11.93;;
84266;SDS011;74414;51.098;13.716;2024-02-16T07:57:57;20.08;;;11.73;;
84266;SDS011;74414;51.098;13.716;2024-02-16T08:00:23;20.50;;;11.80;;
84266;SDS011;74414;51.098;13.716;2024-02-16T08:02:48;19.55;;;11.15;;
84266;SDS011;74414;51.098;13.716;2024-02-16T08:05:14;19.70;;;11.68;;
84266;SDS011;74414;51.098;13.716;2024-02-16T08:07:40;19.25;;;9.65;;
84266;SDS011;74414;51.098;13.716;2024-02-16T08:10:07;19.65;;;11.52;;
84266;SDS011;74414;51.098;13.716;2024-02-16T08:12:34;19.08;;;11.07;;
84266;SDS011;74414;51.098;13.716;2024-02-16T08:15:00;19.60;;;9.35;;
84266;SDS011;74414;51.098;13.716;2024-02-16T08:17:26;18.02;;;9.57;;
84266;SDS011;74414;51.098;13.716;2024-02-16T08:19:52;19.03;;;10.33;;
84266;SDS011;74414;51.098;13.716;2024-02-16T08:22:21;20.75;;;11.73;;
84266;SDS011;74414;51.098;13.716;2024-02-16T08:24:46;20.15;;;11.45;;
84266;SDS011;74414;51.098;13.716;2024-02-16T08:27:12;19.23;;;12.00;;
84266;SDS011;74414;51.098;13.716;2024-02-16T08:29:38;21.52;;;11.38;;
84266;SDS011;74414;51.098;13.716;2024-02-16T08:32:03;20.00;;;10.82;;
84266;SDS011;74414;51.098;13.716;2024-02-16T08:34:30;21.77;;;11.18;;
84266;SDS011;74414;51.098;13.716;2024-02-16T08:36:56;20.65;;;11.20;;
84266;SDS011;74414;51.098;13.716;2024-02-16T08:39:22;17.17;;;10.07;;
84266;SDS011;74414;51.098;13.716;2024-02-16T08:41:50;19.35;;;10.43;;
84266;SDS011;74414;51.098;13.716;2024-02-16T08:44:16;17.88;;;10.23;;
84266;SDS011;74414;51.098;13.716;2024-02-16T08:46:43;17.40;;;11.00;;
84266;SDS011;74414;51.098;13.716;2024-02-16T08:49:09;19.92;;;11.18;;
84266;SDS011;74414;51.098;13.716;2024-02-16T08:51:34;18.60;;;10.43;;
84266;SDS011;74414;51.098;13.716;2024-02-16T08:54:00;20.50;;;12.18;;
84266;SDS011;74414;51.098;13.716;2024-02-16T08:56:27;18.85;;;11.45;;
84266;SDS011;74414;51.098;13.716;2024-02-16T08:58:53;17.58;;;10.48;;
84266;SDS011;74414;51.098;13.716;2024-02-16T09:01:29;19.25;;;10.63;;
84266;SDS011;74414;51.098;13.716;2024-02-16T09:03:57;18.25;;;10.50;;
84266;SDS011;74414;51.098;13.716;2024-02-16T09:06:23;18.33;;;10.20;;
84266;SDS011;74414;51.098;13.716;2024-02-16T09:08:48;22.27;;;11.20;;
84266;SDS011;74414;51.098;13.716;2024-02-16T09:11:13;16.63;;;9.63;;
84266;SDS011;74414;51.098;13.716;2024-02-16T09:13:39;17.23;;;10.30;;
84266;SDS011;74414;51.098;13.716;2024-02-16T09:16:05;17.58;;;10.80;;
84266;SDS011;74414;51.098;13.716;2024-02-16T09:18:32;19.85;;;11.05;;
84266;SDS011;74414;51.098;13.716;2024-02-16T09:20:58;15.23;;;9.07;;
84266;SDS011;74414;51.098;13.716;2024-02-16T09:23:24;16.70;;;9.38;;
84266;SDS011;74414;51.098;13.716;2024-02-16T09:25:50;21.55;;;11.05;;
84266;SDS011;74414;51.098;13.716;2024-02-16T09:28:16;18.08;;;10.80;;
84266;SDS011;74414;51.098;13.716;2024-02-16T09:30:43;17.92;;;10.82;;
84266;SDS011;74414;51.098;13.716;2024-02-16T09:33:08;19.38;;;11.82;;
84266;SDS011;74414;51.098;13.716;2024-02-16T09:35:34;17.83;;;10.93;;
84266;SDS011;74414;51.098;13.716;2024-02-16T09:37:59;16.30;;;10.13;;
84266;SDS011;74414;51.098;13.716;2024-02-16T09:40:25;20.20;;;10.85;;
84266;SDS011;74414;51.098;13.716;2024-02-16T09:42:51;19.85;;;10.75;;
84266;SDS011;74414;51.098;13.716;2024-02-16T09:45:17;17.05;;;10.05;;
84266;SDS011;74414;51.098;13.716;2024-02-16T09:47:43;20.35;;;11.27;;
84266;SDS011;74414;51.098;13.716;2024-02-16T09:50:10;18.88;;;10.43;;
84266;SDS011;74414;51.098;13.716;2024-02-16T09:52:36;20.33;;;11.23;;
84266;SDS011;74414;51.098;13.716;2024-02-16T09:55:01;19.77;;;10.52;;
84266;SDS011;74414;51.098;13.716;2024-02-16T09:57:27;19.45;;;11.27;;
84266;SDS011;74414;51.098;13.716;2024-02-16T09:59:53;18.83;;;10.50;;
84266;SDS011;74414;51.098;13.716;2024-02-16T10:02:18;15.27;;;9.53;;
84266;SDS011;74414;51.098;13.716;2024-02-16T10:04:43;16.33;;;9.70;;
84266;SDS011;74414;51.098;13.716;2024-02-16T10:07:09;18.40;;;10.60;;
84266;SDS011;74414;51.098;13.716;2024-02-16T10:09:35;15.63;;;10.07;;
84266;SDS011;74414;51.098;13.716;2024-02-16T10:12:00;16.90;;;10.63;;
84266;SDS011;74414;51.098;13.716;2024-02-16T10:14:25;11.37;;;8.10;;
84266;SDS011;74414;51.098;13.716;2024-02-16T10:17:01;13.95;;;9.13;;
84266;SDS011;74414;51.098;13.716;2024-02-16T10:19:28;16.40;;;10.10;;
84266;SDS011;74414;51.098;13.716;2024-02-16T10:22:05;17.67;;;10.90;;
84266;SDS011;74414;51.098;13.716;2024-02-16T10:24:32;14.57;;;9.52;;
84266;SDS011;74414;51.098;13.716;2024-02-16T10:26:57;16.57;;;11.00;;
84266;SDS011;74414;51.098;13.716;2024-02-16T10:29:22;16.97;;;10.27;;
84266;SDS011;74414;51.098;13.716;2024-02-16T10:31:49;17.05;;;10.05;;
84266;SDS011;74414;51.098;13.716;2024-02-16T10:34:15;17.98;;;10.45;;
84266;SDS011;74414;51.098;13.716;2024-02-16T10:36:41;16.70;;;10.43;;
84266;SDS011;74414;51.098;13.716;2024-02-16T10:39:07;15.98;;;10.77;;
84266;SDS011;74414;51.098;13.716;2024-02-16T10:41:37;20.02;;;11.00;;
84266;SDS011;74414;51.098;13.716;2024-02-16T10:44:03;17.63;;;10.20;;
84266;SDS011;74414;51.098;13.716;2024-02-16T10:46:29;17.90;;;11.45;;
84266;SDS011;74414;51.098;13.716;2024-02-16T10:48:54;14.40;;;9.93;;
84266;SDS011;74414;51.098;13.716;2024-02-16T10:51:23;16.80;;;10.77;;
84266;SDS011;74414;51.098;13.716;2024-02-16T10:53:55;17.92;;;10.50;;
84266;SDS011;74414;51.098;13.716;2024-02-16T10:56:26;17.92;;;10.68;;
84266;SDS011;74414;51.098;13.716;2024-02-16T10:58:53;20.00;;;12.00;;
84266;SDS011;74414;51.098;13.716;2024-02-16T11:01:19;18.00;;;10.93;;
84266;SDS011;74414;51.098;13.716;2024-02-16T11:03:44;17.75;;;11.02;;
84266;SDS011;74414;51.098;13.716;2024-02-16T11:06:17;16.55;;;11.65;;
84266;SDS011;74414;51.098;13.716;2024-02-16T11:08:42;17.58;;;10.27;;
84266;SDS011;74414;51.098;13.716;2024-02-16T11:11:08;17.90;;;11.07;;
84266;SDS011;74414;51.098;13.716;2024-02-16T11:13:37;18.67;;;11.82;;
84266;SDS011;74414;51.098;13.716;2024-02-16T11:18:32;17.45;;;10.70;;
84266;SDS011;74414;51.098;13.716;2024-02-16T11:21:02;16.92;;;10.30;;
84266;SDS011;74414;51.098;13.716;2024-02-16T11:23:29;18.10;;;11.68;;
84266;SDS011;74414;51.098;13.716;2024-02-16T11:26:05;15.73;;;11.05;;
84266;SDS011;74414;51.098;13.716;2024-02-16T11:28:36;16.92;;;11.13;;
84266;SDS011;74414;51.098;13.716;2024-02-16T11:31:02;18.90;;;12.00;;
84266;SDS011;74414;51.098;13.716;2024-02-16T11:33:28;20.85;;;11.57;;
84266;SDS011;74414;51.098;13.716;2024-02-16T11:35:57;18.98;;;11.77;;
84266;SDS011;74414;51.098;13.716;2024-02-16T11:38:24;15.40;;;10.60;;
84266;SDS011;74414;51.098;13.716;2024-02-16T11:40:54;20.73;;;12.32;;
84266;SDS011;74414;51.098;13.716;2024-02-16T11:43:23;15.90;;;10.55;;
84266;SDS011;74414;51.098;13.716;2024-02-16T11:45:49;16.55;;;11.38;;
84266;SDS011;74414;51.098;13.716;2024-02-16T11:48:21;18.10;;;11.57;;
84266;SDS011;74414;51.098;13.716;2024-02-16T11:50:59;18.25;;;11.65;;
84266;SDS011;74414;51.098;13.716;2024-02-16T11:53:25;17.52;;;11.18;;
84266;SDS011;74414;51.098;13.716;2024-02-16T11:55:51;17.83;;;10.60;;
84266;SDS011;74414;51.098;13.716;2024-02-16T11:58:16;19.20;;;11.17;;
84266;SDS011;74414;51.098;13.716;2024-02-16T12:00:44;22.27;;;11.93;;
84266;SDS011;74414;51.098;13.716;2024-02-16T12:03:10;16.58;;;11.45;;
84266;SDS011;74414;51.098;13.716;2024-02-16T12:05:36;16.33;;;10.60;;
84266;SDS011;74414;51.098;13.716;2024-02-16T12:08:01;15.47;;;10.70;;
84266;SDS011;74414;51.098;13.716;2024-02-16T12:10:27;16.90;;;11.48;;
84266;SDS011;74414;51.098;13.716;2024-02-16T12:12:53;19.00;;;10.77;;
84266;SDS011;74414;51.098;13.716;2024-02-16T12:15:19;15.30;;;10.30;;
84266;SDS011;74414;51.098;13.716;2024-02-16T12:17:45;16.10;;;10.10;;
84266;SDS011;74414;51.098;13.716;2024-02-16T12:20:11;15.93;;;11.43;;
84266;SDS011;74414;51.098;13.716;2024-02-16T12:22:40;15.35;;;10.77;;
84266;SDS011;74414;51.098;13.716;2024-02-16T12:25:05;16.90;;;11.15;;
84266;SDS011;74414;51.098;13.716;2024-02-16T12:27:31;17.77;;;10.50;;
84266;SDS011;74414;51.098;13.716;2024-02-16T12:29:56;15.87;;;10.40;;
84266;SDS011;74414;51.098;13.716;2024-02-16T12:32:21;17.20;;;9.53;;
84266;SDS011;74414;51.098;13.716;2024-02-16T12:34:47;14.45;;;9.85;;
84266;SDS011;74414;51.098;13.716;2024-02-16T12:37:12;12.50;;;9.23;;
84266;SDS011;74414;51.098;13.716;2024-02-16T12:39:37;16.77;;;10.65;;
84266;SDS011;74414;51.098;13.716;2024-02-16T12:42:03;14.52;;;9.10;;
84266;SDS011;74414;51.098;13.716;2024-02-16T12:44:29;15.05;;;9.75;;
84266;SDS011;74414;51.098;13.716;2024-02-16T12:46:55;12.35;;;9.15;;
84266;SDS011;74414;51.098;13.716;2024-02-16T12:49:21;14.27;;;9.70;;
84266;SDS011;74414;51.098;13.716;2024-02-16T12:51:50;14.00;;;9.10;;
84266;SDS011;74414;51.098;13.716;2024-02-16T12:54:16;13.98;;;9.50;;
84266;SDS011;74414;51.098;13.716;2024-02-16T12:56:44;13.65;;;9.88;;
84266;SDS011;74414;51.098;13.716;2024-02-16T12:59:10;16.80;;;9.73;;
84266;SDS011;74414;51.098;13.716;2024-02-16T13:01:36;16.57;;;8.90;;
84266;SDS011;74414;51.098;13.716;2024-02-16T13:04:01;14.95;;;9.30;;
84266;SDS011;74414;51.098;13.716;2024-02-16T13:06:27;11.75;;;9.25;;
84266;SDS011;74414;51.098;13.716;2024-02-16T13:08:53;14.82;;;9.88;;
84266;SDS011;74414;51.098;13.716;2024-02-16T13:11:19;17.65;;;10.73;;
84266;SDS011;74414;51.098;13.716;2024-02-16T13:13:44;19.20;;;10.20;;
84266;SDS011;74414;51.098;13.716;2024-02-16T13:16:09;13.85;;;8.60;;
84266;SDS011;74414;51.098;13.716;2024-02-16T13:18:35;14.93;;;8.90;;
84266;SDS011;74414;51.098;13.716;2024-02-16T13:21:00;12.10;;;8.57;;
84266;SDS011;74414;51.098;13.716;2024-02-16T13:23:26;13.15;;;8.20;;
84266;SDS011;74414;51.098;13.716;2024-02-16T13:25:53;12.00;;;7.60;;
84266;SDS011;74414;51.098;13.716;2024-02-16T13:28:19;12.15;;;7.45;;
84266;SDS011;74414;51.098;13.716;2024-02-16T13:30:45;9.27;;;7.20;;
84266;SDS011;74414;51.098;13.716;2024-02-16T13:33:10;11.52;;;7.20;;
84266;SDS011;74414;51.098;13.716;2024-02-16T13:35:36;8.33;;;6.23;;
84266;SDS011;74414;51.098;13.716;2024-02-16T13:38:02;10.18;;;7.20;;
84266;SDS011;74414;51.098;13.716;2024-02-16T13:40:28;13.07;;;7.55;;
84266;SDS011;74414;51.098;13.716;2024-02-16T13:42:53;11.30;;;8.27;;
84266;SDS011;74414;51.098;13.716;2024-02-16T13:45:24;13.48;;;8.40;;
84266;SDS011;74414;51.098;13.716;2024-02-16T13:47:51;13.30;;;9.35;;
84266;SDS011;74414;51.098;13.716;2024-02-16T13:50:16;14.10;;;8.32;;
84266;SDS011;74414;51.098;13.716;2024-02-16T13:52:42;14.95;;;8.85;;
84266;SDS011;74414;51.098;13.716;2024-02-16T13:55:07;15.40;;;9.50;;
84266;SDS011;74414;51.098;13.716;2024-02-16T13:57:33;17.30;;;9.10;;
84266;SDS011;74414;51.098;13.716;2024-02-16T13:59:58;10.93;;;7.47;;
84266;SDS011;74414;51.098;13.716;2024-02-16T14:02:24;13.83;;;9.70;;
84266;SDS011;74414;51.098;13.716;2024-02-16T14:04:50;12.95;;;8.88;;
84266;SDS011;74414;51.098;13.716;2024-02-16T14:07:16;14.32;;;9.85;;
84266;SDS011;74414;51.098;13.716;2024-02-16T14:09:41;15.98;;;9.55;;